createdAt,value
2018-07-07T00:00:32.549Z,1034.66
2018-07-07T00:01:32.545Z,1034.72
2018-07-07T00:02:32.539Z,1034.71
2018-07-07T00:03:32.534Z,1034.74
2018-07-07T00:04:32.527Z,1034.74
2018-07-07T00:05:32.522Z,1034.77
2018-07-07T00:06:32.517Z,1034.77
2018-07-07T00:07:32.511Z,1034.8
2018-07-07T00:08:32.505Z,1034.82
2018-07-07T00:09:32.500Z,1034.84
2018-07-07T00:10:32.494Z,1034.84
2018-07-07T00:11:32.488Z,1034.81
2018-07-07T00:12:32.483Z,1034.82
2018-07-07T00:13:32.477Z,1034.87
2018-07-07T00:14:32.472Z,1034.87
2018-07-07T00:15:32.466Z,1034.84
2018-07-07T00:16:32.472Z,1034.91
2018-07-07T00:17:32.455Z,1034.87
2018-07-07T00:18:32.449Z,1034.87
2018-07-07T00:19:32.444Z,1034.89
2018-07-07T00:20:32.437Z,1034.89
2018-07-07T00:21:32.432Z,1034.94
2018-07-07T00:22:32.426Z,1034.95
2018-07-07T00:23:32.423Z,1035
2018-07-07T00:24:32.415Z,1035.01
2018-07-07T00:25:32.412Z,1035.01
2018-07-07T00:26:32.406Z,1035.07
2018-07-07T00:27:32.398Z,1035.06
2018-07-07T00:28:32.393Z,1035.06
2018-07-07T00:29:32.394Z,1035.09
2018-07-07T00:30:32.631Z,1035.12
2018-07-07T00:31:32.376Z,1035.09
2018-07-07T00:32:32.369Z,1035.11
2018-07-07T00:33:32.362Z,1035.12
2018-07-07T00:34:32.356Z,1035.13
2018-07-07T00:35:32.356Z,1035.13
2018-07-07T00:36:32.346Z,1035.18
2018-07-07T00:37:32.339Z,1035.19
2018-07-07T00:38:32.333Z,1035.24
2018-07-07T00:39:32.328Z,1035.22
2018-07-07T00:40:32.321Z,1035.18
2018-07-07T00:41:32.315Z,1035.23
2018-07-07T00:42:32.309Z,1035.22
2018-07-07T00:43:32.307Z,1035.22
2018-07-07T00:44:32.298Z,1035.21
2018-07-07T00:45:32.291Z,1035.24
2018-07-07T00:46:32.286Z,1035.27
2018-07-07T00:47:32.280Z,1035.25
2018-07-07T00:48:32.273Z,1035.26
2018-07-07T00:49:32.269Z,1035.27
2018-07-07T00:50:32.269Z,1035.25
2018-07-07T00:51:32.256Z,1035.24
2018-07-07T00:52:32.249Z,1035.24
2018-07-07T00:53:32.252Z,1035.3
2018-07-07T00:54:32.309Z,1035.3
2018-07-07T00:55:32.231Z,1035.27
2018-07-07T00:56:32.225Z,1035.36
2018-07-07T00:57:32.220Z,1035.36
2018-07-07T00:58:32.213Z,1035.36
2018-07-07T00:59:32.207Z,1035.34
2018-07-07T01:00:32.201Z,1035.35
2018-07-07T01:01:32.195Z,1035.36
2018-07-07T01:02:32.188Z,1035.36
2018-07-07T01:03:32.186Z,1035.36
2018-07-07T01:04:32.177Z,1035.38
2018-07-07T01:05:32.170Z,1035.34
2018-07-07T01:06:32.165Z,1035.38
2018-07-07T01:07:32.158Z,1035.39
2018-07-07T01:08:32.154Z,1035.4
2018-07-07T01:09:32.268Z,1035.42
2018-07-07T01:10:32.154Z,1035.43
2018-07-07T01:11:32.135Z,1035.45
2018-07-07T01:12:32.130Z,1035.44
2018-07-07T01:13:32.121Z,1035.44
2018-07-07T01:14:32.124Z,1035.47
2018-07-07T01:15:32.108Z,1035.47
2018-07-07T01:16:32.102Z,1035.45
2018-07-07T01:17:32.095Z,1035.45
2018-07-07T01:18:32.089Z,1035.43
2018-07-07T01:19:32.084Z,1035.44
2018-07-07T01:20:32.078Z,1035.46
2018-07-07T01:21:32.071Z,1035.45
2018-07-07T01:22:32.065Z,1035.47
2018-07-07T01:23:32.058Z,1035.47
2018-07-07T01:24:32.052Z,1035.45
2018-07-07T01:25:32.046Z,1035.46
2018-07-07T01:26:32.040Z,1035.44
2018-07-07T01:27:32.034Z,1035.44
2018-07-07T01:28:32.027Z,1035.46
2018-07-07T01:29:32.021Z,1035.46
2018-07-07T01:30:32.015Z,1035.46
2018-07-07T01:31:32.008Z,1035.51
2018-07-07T01:32:32.011Z,1035.48
2018-07-07T01:33:31.995Z,1035.51
2018-07-07T01:34:31.990Z,1035.5
2018-07-07T01:35:31.982Z,1035.5
2018-07-07T01:36:31.980Z,1035.48
2018-07-07T01:37:31.969Z,1035.49
2018-07-07T01:38:31.965Z,1035.51
2018-07-07T01:39:31.955Z,1035.52
2018-07-07T01:40:31.950Z,1035.53
2018-07-07T01:41:31.944Z,1035.56
2018-07-07T01:42:31.937Z,1035.56
2018-07-07T01:43:31.930Z,1035.55
2018-07-07T01:44:31.929Z,1035.61
2018-07-07T01:45:31.925Z,1035.57
2018-07-07T01:46:31.910Z,1035.55
2018-07-07T01:47:31.907Z,1035.54
2018-07-07T01:48:31.900Z,1035.56
2018-07-07T01:49:31.892Z,1035.58
2018-07-07T01:50:31.885Z,1035.57
2018-07-07T01:51:31.878Z,1035.56
2018-07-07T01:52:31.872Z,1035.57
2018-07-07T01:53:31.865Z,1035.57
2018-07-07T01:54:31.859Z,1035.62
2018-07-07T01:55:31.852Z,1035.61
2018-07-07T01:56:31.846Z,1035.64
2018-07-07T01:57:31.838Z,1035.62
2018-07-07T01:58:31.835Z,1035.62
2018-07-07T01:59:31.826Z,1035.61
2018-07-07T02:00:31.823Z,1035.63
2018-07-07T02:01:31.812Z,1035.66
2018-07-07T02:02:31.805Z,1035.67
2018-07-07T02:03:31.799Z,1035.72
2018-07-07T02:04:31.792Z,1035.73
2018-07-07T02:05:31.787Z,1035.71
2018-07-07T02:06:31.781Z,1035.76
2018-07-07T02:07:31.772Z,1035.78
2018-07-07T02:08:31.771Z,1035.78
2018-07-07T02:09:31.759Z,1035.79
2018-07-07T02:10:31.839Z,1035.81
2018-07-07T02:11:31.746Z,1035.82
2018-07-07T02:12:31.749Z,1035.79
2018-07-07T02:13:31.732Z,1035.77
2018-07-07T02:14:31.725Z,1035.79
2018-07-07T02:15:31.720Z,1035.76
2018-07-07T02:16:31.710Z,1035.79
2018-07-07T02:17:31.705Z,1035.77
2018-07-07T02:18:31.699Z,1035.78
2018-07-07T02:19:31.691Z,1035.78
2018-07-07T02:20:31.684Z,1035.78
2018-07-07T02:21:31.677Z,1035.79
2018-07-07T02:22:31.671Z,1035.8
2018-07-07T02:23:31.665Z,1035.77
2018-07-07T02:24:31.657Z,1035.82
2018-07-07T02:25:31.649Z,1035.83
2018-07-07T02:26:31.648Z,1035.82
2018-07-07T02:27:31.635Z,1035.8
2018-07-07T02:28:31.628Z,1035.78
2018-07-07T02:29:31.621Z,1035.8
2018-07-07T02:30:31.615Z,1035.81
2018-07-07T02:31:31.609Z,1035.8
2018-07-07T02:32:31.600Z,1035.81
2018-07-07T02:33:31.600Z,1035.84
2018-07-07T02:34:31.586Z,1035.84
2018-07-07T02:35:31.580Z,1035.84
2018-07-07T02:36:31.573Z,1035.88
2018-07-07T02:37:31.565Z,1035.86
2018-07-07T02:38:31.559Z,1035.84
2018-07-07T02:39:31.552Z,1035.84
2018-07-07T02:40:31.552Z,1035.84
2018-07-07T02:41:31.539Z,1035.84
2018-07-07T02:42:31.529Z,1035.83
2018-07-07T02:43:31.524Z,1035.82
2018-07-07T02:44:31.518Z,1035.82
2018-07-07T02:45:31.526Z,1035.87
2018-07-07T02:46:31.503Z,1035.83
2018-07-07T02:47:31.495Z,1035.86
2018-07-07T02:48:31.500Z,1035.89
2018-07-07T02:49:31.493Z,1035.89
2018-07-07T02:50:31.476Z,1035.89
2018-07-07T02:51:31.475Z,1035.93
2018-07-07T02:52:31.459Z,1035.92
2018-07-07T02:53:31.454Z,1035.9
2018-07-07T02:54:31.446Z,1035.91
2018-07-07T02:55:31.443Z,1035.96
2018-07-07T02:56:31.434Z,1035.95
2018-07-07T02:57:31.424Z,1035.95
2018-07-07T02:58:31.456Z,1035.92
2018-07-07T02:59:31.409Z,1035.89
2018-07-07T03:00:31.403Z,1035.87
2018-07-07T03:01:31.396Z,1035.89
2018-07-07T03:02:31.388Z,1035.88
2018-07-07T03:03:31.380Z,1035.88
2018-07-07T03:04:31.374Z,1035.9
2018-07-07T03:05:31.367Z,1035.91
2018-07-07T03:06:31.361Z,1035.86
2018-07-07T03:07:31.352Z,1035.87
2018-07-07T03:08:31.345Z,1035.88
2018-07-07T03:09:31.338Z,1035.88
2018-07-07T03:10:31.331Z,1035.87
2018-07-07T03:11:31.323Z,1035.87
2018-07-07T03:12:31.316Z,1035.86
2018-07-07T03:13:31.315Z,1035.88
2018-07-07T03:14:31.302Z,1035.85
2018-07-07T03:15:31.295Z,1035.88
2018-07-07T03:16:31.288Z,1035.88
2018-07-07T03:17:31.285Z,1035.85
2018-07-07T03:18:31.273Z,1035.83
2018-07-07T03:19:31.270Z,1035.83
2018-07-07T03:20:31.259Z,1035.82
2018-07-07T03:21:31.252Z,1035.74
2018-07-07T03:22:31.248Z,1035.75
2018-07-07T03:23:31.243Z,1035.74
2018-07-07T03:24:31.231Z,1035.72
2018-07-07T03:25:31.223Z,1035.75
2018-07-07T03:26:31.217Z,1035.67
2018-07-07T03:27:31.211Z,1035.71
2018-07-07T03:28:31.204Z,1035.65
2018-07-07T03:29:31.198Z,1035.62
2018-07-07T03:30:31.190Z,1035.55
2018-07-07T03:31:31.184Z,1035.33
2018-07-07T03:32:31.175Z,1035.27
2018-07-07T03:33:31.168Z,1035.06
2018-07-07T03:34:31.163Z,1034.94
2018-07-07T03:35:31.157Z,1034.83
2018-07-07T03:36:31.149Z,1034.65
2018-07-07T03:37:31.393Z,1034.51
2018-07-07T03:38:31.140Z,1034.41
2018-07-07T03:39:31.131Z,1034.3
2018-07-07T03:40:31.143Z,1034.12
2018-07-07T03:41:31.119Z,1033.99
2018-07-07T03:42:31.114Z,1033.83
2018-07-07T03:43:31.107Z,1033.65
2018-07-07T03:44:31.102Z,1033.51
2018-07-07T03:45:31.097Z,1033.38
2018-07-07T03:46:31.092Z,1033.24
2018-07-07T03:47:31.086Z,1033.11
2018-07-07T03:48:31.092Z,1033.01
2018-07-07T03:49:31.077Z,1032.85
2018-07-07T03:50:31.071Z,1032.67
2018-07-07T03:51:31.068Z,1032.56
2018-07-07T03:52:31.064Z,1032.46
2018-07-07T03:53:31.061Z,1032.33
2018-07-07T03:54:31.056Z,1032.21
2018-07-07T03:55:31.061Z,1032.04
2018-07-07T03:56:31.049Z,1032
2018-07-07T03:57:31.047Z,1031.9
2018-07-07T03:58:31.043Z,1031.81
2018-07-07T03:59:31.040Z,1031.69
2018-07-07T04:00:31.038Z,1031.57
2018-07-07T04:01:31.034Z,1031.44
2018-07-07T04:02:31.032Z,1031.36
2018-07-07T04:03:31.030Z,1031.26
2018-07-07T04:04:31.028Z,1031.15
2018-07-07T04:05:31.025Z,1031.11
2018-07-07T04:06:31.025Z,1031.05
2018-07-07T04:07:31.024Z,1030.97
2018-07-07T04:08:31.022Z,1030.83
2018-07-07T04:09:31.020Z,1030.73
2018-07-07T04:10:31.020Z,1030.65
2018-07-07T04:11:31.022Z,1030.55
2018-07-07T04:12:31.019Z,1030.5
2018-07-07T04:13:31.019Z,1030.44
2018-07-07T04:14:31.020Z,1030.32
2018-07-07T04:15:31.019Z,1030.23
2018-07-07T04:16:31.021Z,1030.14
2018-07-07T04:17:31.020Z,1030
2018-07-07T04:18:31.021Z,1030.02
2018-07-07T04:19:31.022Z,1030.04
2018-07-07T04:20:31.023Z,1029.91
2018-07-07T04:21:31.028Z,1029.89
2018-07-07T04:22:31.027Z,1029.77
2018-07-07T04:23:31.028Z,1029.73
2018-07-07T04:24:31.031Z,1029.67
2018-07-07T04:25:31.033Z,1029.68
2018-07-07T04:26:31.039Z,1029.59
2018-07-07T04:27:31.039Z,1029.46
2018-07-07T04:28:31.042Z,1029.33
2018-07-07T04:29:31.045Z,1029.37
2018-07-07T04:30:31.076Z,1029.32
2018-07-07T04:31:31.051Z,1029.36
2018-07-07T04:32:31.055Z,1029.25
2018-07-07T04:33:31.060Z,1029.36
2018-07-07T04:34:31.063Z,1029.22
2018-07-07T04:35:31.069Z,1029.41
2018-07-07T04:36:31.073Z,1029.61
2018-07-07T04:37:31.078Z,1029.41
2018-07-07T04:38:31.081Z,1029.66
2018-07-07T04:39:31.087Z,1029.8
2018-07-07T04:40:31.091Z,1029.92
2018-07-07T04:41:31.096Z,1029.98
2018-07-07T04:42:31.102Z,1030.18
2018-07-07T04:43:31.104Z,1030.48
2018-07-07T04:44:31.112Z,1030.6
2018-07-07T04:45:31.113Z,1030.85
2018-07-07T04:46:31.118Z,1030.81
2018-07-07T04:47:31.121Z,1030.98
2018-07-07T04:48:31.129Z,1031.34
2018-07-07T04:49:31.131Z,1031.59
2018-07-07T04:50:31.131Z,1031.77
2018-07-07T04:51:31.135Z,1031.94
2018-07-07T04:52:31.210Z,1032.07
2018-07-07T04:53:31.141Z,1032.31
2018-07-07T04:54:31.142Z,1032.36
2018-07-07T04:55:31.144Z,1032.36
2018-07-07T04:56:31.146Z,1032.31
2018-07-07T04:57:31.148Z,1032.38
2018-07-07T04:58:31.149Z,1032.42
2018-07-07T04:59:31.151Z,1032.41
2018-07-07T05:00:31.152Z,1032.37
2018-07-07T05:01:31.153Z,1032.27
2018-07-07T05:02:31.155Z,1032.25
2018-07-07T05:03:31.155Z,1032.26
2018-07-07T05:04:31.183Z,1032.28
2018-07-07T05:05:31.156Z,1032.48
2018-07-07T05:06:31.157Z,1032.57
2018-07-07T05:07:31.157Z,1032.59
2018-07-07T05:08:31.157Z,1032.58
2018-07-07T05:09:31.164Z,1032.61
2018-07-07T05:10:31.158Z,1032.73
2018-07-07T05:11:31.157Z,1032.83
2018-07-07T05:12:31.157Z,1032.92
2018-07-07T05:13:31.160Z,1032.84
2018-07-07T05:14:31.157Z,1032.79
2018-07-07T05:15:31.191Z,1032.66
2018-07-07T05:16:31.157Z,1032.66
2018-07-07T05:17:31.156Z,1032.54
2018-07-07T05:18:31.155Z,1032.33
2018-07-07T05:19:31.155Z,1032.28
2018-07-07T05:20:31.155Z,1032.35
2018-07-07T05:21:31.154Z,1032.43
2018-07-07T05:22:31.152Z,1032.49
2018-07-07T05:23:31.153Z,1032.49
2018-07-07T05:24:31.152Z,1032.46
2018-07-07T05:25:31.150Z,1032.72
2018-07-07T05:26:31.149Z,1032.73
2018-07-07T05:27:31.150Z,1032.58
2018-07-07T05:28:31.149Z,1032.62
2018-07-07T05:29:31.149Z,1032.76
2018-07-07T05:30:31.147Z,1032.86
2018-07-07T05:31:31.147Z,1032.82
2018-07-07T05:32:31.146Z,1032.77
2018-07-07T05:33:31.144Z,1032.66
2018-07-07T05:34:31.144Z,1032.53
2018-07-07T05:35:31.142Z,1032.34
2018-07-07T05:36:31.141Z,1032.29
2018-07-07T05:37:31.140Z,1032.36
2018-07-07T05:38:31.140Z,1032.51
2018-07-07T05:39:31.138Z,1032.58
2018-07-07T05:40:31.137Z,1032.73
2018-07-07T05:41:31.144Z,1032.81
2018-07-07T05:42:31.138Z,1032.81
2018-07-07T05:43:31.141Z,1032.86
2018-07-07T05:44:31.135Z,1032.86
2018-07-07T05:45:31.142Z,1032.93
2018-07-07T05:46:31.135Z,1033.06
2018-07-07T05:47:31.135Z,1033.07
2018-07-07T05:48:31.128Z,1033.05
2018-07-07T05:49:31.127Z,1033.04
2018-07-07T05:50:31.134Z,1032.86
2018-07-07T05:51:31.125Z,1032.87
2018-07-07T05:52:31.124Z,1032.78
2018-07-07T05:53:31.128Z,1032.58
2018-07-07T05:54:31.122Z,1032.23
2018-07-07T05:55:31.124Z,1032.25
2018-07-07T05:56:31.120Z,1032.37
2018-07-07T05:57:31.158Z,1032.26
2018-07-07T05:58:31.118Z,1032.26
2018-07-07T05:59:31.116Z,1031.8
2018-07-07T06:00:31.116Z,1031.54
2018-07-07T06:01:31.116Z,1031.2
2018-07-07T06:02:31.115Z,1030.76
2018-07-07T06:03:31.115Z,1030.82
2018-07-07T06:04:31.114Z,1031.04
2018-07-07T06:05:31.114Z,1031.37
2018-07-07T06:06:31.114Z,1031.49
2018-07-07T06:07:31.114Z,1031.69
2018-07-07T06:08:31.118Z,1030.66
2018-07-07T06:09:31.114Z,1030.64
2018-07-07T06:10:31.115Z,1030.5
2018-07-07T06:11:31.116Z,1030.29
2018-07-07T06:12:31.117Z,1030.64
2018-07-07T06:13:31.370Z,1029.43
2018-07-07T06:14:31.207Z,1028.67
2018-07-07T06:15:31.122Z,1029.37
2018-07-07T06:16:31.132Z,1029.1
2018-07-07T06:17:31.126Z,1028.44
2018-07-07T06:18:31.131Z,1027.18
2018-07-07T06:19:31.133Z,1027.79
2018-07-07T06:20:31.137Z,1028.35
2018-07-07T06:21:31.141Z,1028.46
2018-07-07T06:22:31.147Z,1028.85
2018-07-07T06:23:31.152Z,1029.24
2018-07-07T06:24:31.155Z,1028.9
2018-07-07T06:25:31.161Z,1030.05
2018-07-07T06:26:31.207Z,1029.01
2018-07-07T06:27:31.171Z,1028.41
2018-07-07T06:28:31.378Z,1027.41
2018-07-07T06:29:31.182Z,1028.45
2018-07-07T06:30:31.189Z,1028.09
2018-07-07T06:31:31.194Z,1028.64
2018-07-07T06:32:31.201Z,1029.04
2018-07-07T06:33:31.208Z,1029.45
2018-07-07T06:34:31.214Z,1029.81
2018-07-07T06:35:31.220Z,1030.07
2018-07-07T06:36:31.226Z,1030.11
2018-07-07T06:37:31.233Z,1029
2018-07-07T06:38:31.239Z,1028.1
2018-07-07T06:39:31.245Z,1027.55
2018-07-07T06:40:31.251Z,1027.66
2018-07-07T06:41:31.258Z,1027.24
2018-07-07T06:42:31.266Z,1026.84
2018-07-07T06:43:31.273Z,1026.64
2018-07-07T06:44:31.532Z,1026.8
2018-07-07T06:45:31.291Z,1026.56
2018-07-07T06:46:31.299Z,1027.41
2018-07-07T06:47:31.308Z,1027.58
2018-07-07T06:48:31.318Z,1027.48
2018-07-07T06:49:31.330Z,1027.45
2018-07-07T06:50:31.336Z,1026.96
2018-07-07T06:51:31.347Z,1026.72
2018-07-07T06:52:31.358Z,1026.48
2018-07-07T06:53:31.367Z,1026.03
2018-07-07T06:54:31.378Z,1025.88
2018-07-07T06:55:31.390Z,1026.77
2018-07-07T06:56:31.399Z,1028.1
2018-07-07T06:57:31.409Z,1027.26
2018-07-07T06:58:31.424Z,1026.64
2018-07-07T06:59:31.502Z,1026.6
2018-07-07T07:00:31.443Z,1026.17
2018-07-07T07:02:31.466Z,1025.76
2018-07-07T07:03:31.548Z,1025.71
2018-07-07T07:04:31.491Z,1025.62
2018-07-07T07:05:31.502Z,1025.61
2018-07-07T07:06:32.411Z,1025.55
2018-07-07T07:07:31.534Z,1025.37
2018-07-07T07:08:31.548Z,1025.31
2018-07-07T07:09:31.554Z,1025.33
2018-07-07T07:10:31.569Z,1025.26
2018-07-07T07:11:31.581Z,1025.14
2018-07-07T07:12:31.595Z,1024.97
2018-07-07T07:13:31.609Z,1024.88
2018-07-07T07:14:31.624Z,1024.93
2018-07-07T07:15:31.637Z,1025.25
2018-07-07T07:16:31.652Z,1025.25
2018-07-07T07:17:31.669Z,1024.99
2018-07-07T07:18:31.684Z,1024.85
2018-07-07T07:19:31.699Z,1024.76
2018-07-07T07:20:31.714Z,1024.73
2018-07-07T07:21:31.729Z,1024.78
2018-07-07T07:22:31.745Z,1025.04
2018-07-07T07:23:31.770Z,1024.92
2018-07-07T07:24:31.777Z,1024.81
2018-07-07T07:25:31.795Z,1024.79
2018-07-07T07:26:31.814Z,1024.7
2018-07-07T07:27:31.826Z,1024.62
2018-07-07T07:28:31.843Z,1024.6
2018-07-07T07:29:31.861Z,1024.38
2018-07-07T07:30:31.881Z,1024.54
2018-07-07T07:31:31.894Z,1024.49
2018-07-07T07:32:31.911Z,1024.47
2018-07-07T07:33:31.927Z,1024.42
2018-07-07T07:34:31.945Z,1024.37
2018-07-07T07:35:31.962Z,1024.42
2018-07-07T07:36:31.986Z,1024.4
2018-07-07T07:37:31.997Z,1024.33
2018-07-07T07:38:32.016Z,1024.22
2018-07-07T07:39:32.034Z,1024.15
2018-07-07T07:40:32.051Z,1024.12
2018-07-07T07:41:32.070Z,1024.12
2018-07-07T07:42:32.087Z,1024.21
2018-07-07T07:43:32.105Z,1024.28
2018-07-07T07:44:32.123Z,1024.4
2018-07-07T07:45:32.141Z,1024.42
2018-07-07T07:46:32.409Z,1024.31
2018-07-07T07:47:32.177Z,1024.33
2018-07-07T07:48:32.195Z,1024.42
2018-07-07T07:49:32.214Z,1024.53
2018-07-07T07:50:32.239Z,1024.54
2018-07-07T07:51:32.251Z,1024.67
2018-07-07T07:52:32.269Z,1024.73
2018-07-07T07:53:32.290Z,1024.84
2018-07-07T07:54:32.315Z,1024.81
2018-07-07T07:55:32.347Z,1024.79
2018-07-07T07:56:32.341Z,1024.88
2018-07-07T07:57:32.359Z,1024.94
2018-07-07T07:58:32.378Z,1024.97
2018-07-07T07:59:32.397Z,1024.9
2018-07-07T08:00:32.460Z,1024.8
2018-07-07T08:01:32.432Z,1024.8
2018-07-07T08:02:32.450Z,1024.76
2018-07-07T08:03:32.470Z,1024.66
2018-07-07T08:04:32.485Z,1024.58
2018-07-07T08:05:32.503Z,1024.72
2018-07-07T08:06:32.522Z,1024.81
2018-07-07T08:07:32.538Z,1024.87
2018-07-07T08:08:32.555Z,1024.88
2018-07-07T08:09:32.575Z,1024.99
2018-07-07T08:10:32.591Z,1025.14
2018-07-07T08:11:32.608Z,1025.22
2018-07-07T08:12:32.630Z,1025.38
2018-07-07T08:13:32.644Z,1025.5
2018-07-07T08:14:32.661Z,1025.63
2018-07-07T08:15:32.684Z,1025.75
2018-07-07T08:16:32.695Z,1025.74
2018-07-07T08:17:32.711Z,1025.85
2018-07-07T08:18:32.728Z,1025.82
2018-07-07T08:19:32.748Z,1025.8
2018-07-07T08:20:32.766Z,1025.84
2018-07-07T08:21:32.777Z,1025.77
2018-07-07T08:22:32.853Z,1025.75
2018-07-07T08:23:32.810Z,1025.76
2018-07-07T08:24:32.827Z,1025.79
2018-07-07T08:25:32.844Z,1025.75
2018-07-07T08:26:32.860Z,1025.77
2018-07-07T08:27:32.878Z,1025.71
2018-07-07T08:28:32.904Z,1025.72
2018-07-07T08:29:32.907Z,1025.8
2018-07-07T08:30:32.925Z,1025.75
2018-07-07T08:31:32.940Z,1025.77
2018-07-07T08:32:32.954Z,1025.74
2018-07-07T08:33:32.970Z,1025.79
2018-07-07T08:34:33.037Z,1025.76
2018-07-07T08:35:33.001Z,1025.91
2018-07-07T08:36:33.163Z,1025.91
2018-07-07T08:37:33.032Z,1025.83
2018-07-07T08:38:33.051Z,1025.76
2018-07-07T08:39:33.062Z,1025.71
2018-07-07T08:40:33.076Z,1025.51
2018-07-07T08:41:33.092Z,1025.62
2018-07-07T08:42:33.110Z,1025.66
2018-07-07T08:43:33.121Z,1025.69
2018-07-07T08:44:33.137Z,1025.79
2018-07-07T08:45:33.152Z,1025.83
2018-07-07T08:46:33.165Z,1025.68
2018-07-07T08:47:33.181Z,1025.7
2018-07-07T08:48:33.195Z,1025.58
2018-07-07T08:49:33.213Z,1025.48
2018-07-07T08:50:33.225Z,1025.41
2018-07-07T08:51:33.240Z,1025.36
2018-07-07T08:52:33.254Z,1025.49
2018-07-07T08:53:33.275Z,1025.66
2018-07-07T08:54:33.282Z,1025.65
2018-07-07T08:55:33.297Z,1025.74
2018-07-07T08:56:33.312Z,1025.85
2018-07-07T08:57:33.327Z,1025.87
2018-07-07T08:58:33.340Z,1026.5
2018-07-07T08:59:33.355Z,1027.06
2018-07-07T09:00:33.371Z,1027.59
2018-07-07T09:01:33.391Z,1028.08
2018-07-07T09:02:33.453Z,1028.48
2018-07-07T09:03:33.409Z,1028.83
2018-07-07T09:04:33.423Z,1029.01
2018-07-07T09:05:33.437Z,1029.25
2018-07-07T09:06:33.452Z,1029.46
2018-07-07T09:07:33.509Z,1029.73
2018-07-07T09:08:33.474Z,1029.91
2018-07-07T09:09:33.487Z,1029.95
2018-07-07T09:10:33.494Z,1030.15
2018-07-07T09:11:33.506Z,1030.18
2018-07-07T09:12:33.516Z,1030.3
2018-07-07T09:13:33.526Z,1030.31
2018-07-07T09:14:33.547Z,1030.34
2018-07-07T09:16:33.556Z,1030.27
2018-07-07T09:17:33.566Z,1030.25
2018-07-07T09:19:33.585Z,1030.18
2018-07-07T09:20:33.592Z,1030.14
2018-07-07T09:21:33.852Z,1030.13
2018-07-07T09:22:33.611Z,1030.11
2018-07-07T09:23:33.618Z,1030.15
2018-07-07T09:24:33.676Z,1030.16
2018-07-07T09:25:33.636Z,1030.18
2018-07-07T09:26:33.646Z,1030.17
2018-07-07T09:27:33.652Z,1030.12
2018-07-07T09:28:33.660Z,1030.21
2018-07-07T09:29:33.669Z,1030.27
2018-07-07T09:30:33.679Z,1030.31
2018-07-07T09:31:33.684Z,1030.37
2018-07-07T09:32:33.694Z,1030.25
2018-07-07T09:33:33.702Z,1030.27
2018-07-07T09:34:33.709Z,1030.26
2018-07-07T09:35:33.717Z,1030.29
2018-07-07T09:36:33.725Z,1030.26
2018-07-07T09:37:33.744Z,1030.26
2018-07-07T09:38:33.741Z,1030.25
2018-07-07T09:39:33.748Z,1030.29
2018-07-07T09:40:33.756Z,1030.35
2018-07-07T09:41:33.762Z,1030.44
2018-07-07T09:42:33.772Z,1030.51
2018-07-07T09:43:33.778Z,1030.54
2018-07-07T09:44:33.786Z,1030.54
2018-07-07T09:45:33.793Z,1030.65
2018-07-07T09:46:33.800Z,1030.64
2018-07-07T09:47:33.807Z,1030.63
2018-07-07T09:48:33.815Z,1030.65
2018-07-07T09:49:33.821Z,1030.56
2018-07-07T09:50:33.831Z,1030.56
2018-07-07T09:51:33.837Z,1030.53
2018-07-07T09:52:33.843Z,1030.6
2018-07-07T09:53:33.850Z,1030.56
2018-07-07T09:55:33.864Z,1030.45
2018-07-07T09:56:33.870Z,1030.44
2018-07-07T09:57:33.878Z,1030.35
2018-07-07T09:58:33.885Z,1030.48
2018-07-07T09:59:33.892Z,1030.51
2018-07-07T10:00:33.899Z,1030.47
2018-07-07T10:01:33.907Z,1030.58
2018-07-07T10:02:33.915Z,1030.62
2018-07-07T10:03:33.920Z,1030.71
2018-07-07T10:04:33.950Z,1030.72
2018-07-07T10:05:33.934Z,1030.71
2018-07-07T10:06:33.940Z,1030.71
2018-07-07T10:07:33.966Z,1030.72
2018-07-07T10:08:33.953Z,1030.79
2018-07-07T10:09:33.961Z,1030.96
2018-07-07T10:10:33.970Z,1031.13
2018-07-07T10:11:33.972Z,1031.24
2018-07-07T10:12:33.979Z,1031.27
2018-07-07T10:13:34.057Z,1031.43
2018-07-07T10:14:33.991Z,1031.47
2018-07-07T10:15:33.997Z,1031.48
2018-07-07T10:16:34.024Z,1031.56
2018-07-07T10:17:34.010Z,1031.52
2018-07-07T10:18:34.015Z,1031.57
2018-07-07T10:19:34.021Z,1031.61
2018-07-07T10:20:34.059Z,1031.66
2018-07-07T10:21:34.033Z,1031.79
2018-07-07T10:22:34.037Z,1031.85
2018-07-07T10:23:34.293Z,1031.91
2018-07-07T10:24:34.049Z,1031.88
2018-07-07T10:25:34.055Z,1031.84
2018-07-07T10:26:34.062Z,1031.87
2018-07-07T10:27:34.068Z,1031.8
2018-07-07T10:28:34.069Z,1031.72
2018-07-07T10:29:34.075Z,1031.74
2018-07-07T10:30:34.084Z,1031.75
2018-07-07T10:31:34.170Z,1031.79
2018-07-07T10:32:34.094Z,1031.78
2018-07-07T10:33:34.093Z,1031.72
2018-07-07T10:34:34.097Z,1031.76
2018-07-07T10:35:34.102Z,1031.79
2018-07-07T10:36:34.108Z,1031.83
2018-07-07T10:37:34.143Z,1031.9
2018-07-07T10:38:34.119Z,1031.95
2018-07-07T10:39:34.120Z,1031.93
2018-07-07T10:40:34.124Z,1031.98
2018-07-07T10:41:34.141Z,1032.03
2018-07-07T10:42:34.134Z,1032.06
2018-07-07T10:43:34.137Z,1032.14
2018-07-07T10:44:34.157Z,1032.15
2018-07-07T10:45:34.246Z,1032.15
2018-07-07T10:46:34.153Z,1032.16
2018-07-07T10:47:34.153Z,1032.18
2018-07-07T10:48:34.157Z,1032.23
2018-07-07T10:49:34.160Z,1032.22
2018-07-07T10:50:34.166Z,1032.34
2018-07-07T10:51:34.167Z,1032.35
2018-07-07T10:52:34.170Z,1032.44
2018-07-07T10:53:34.177Z,1032.4
2018-07-07T10:54:34.179Z,1032.48
2018-07-07T10:55:34.251Z,1032.54
2018-07-07T10:56:34.186Z,1032.51
2018-07-07T10:57:34.187Z,1032.46
2018-07-07T10:58:34.190Z,1032.5
2018-07-07T10:59:34.193Z,1032.59
2018-07-07T11:00:34.196Z,1032.55
2018-07-07T11:01:34.202Z,1032.53
2018-07-07T11:02:34.210Z,1032.53
2018-07-07T11:03:34.204Z,1032.49
2018-07-07T11:04:34.207Z,1032.32
2018-07-07T11:05:34.209Z,1032.31
2018-07-07T11:06:34.213Z,1032.18
2018-07-07T11:07:34.216Z,1032.11
2018-07-07T11:08:34.218Z,1032.22
2018-07-07T11:09:34.221Z,1032.06
2018-07-07T11:10:34.223Z,1032.04
2018-07-07T11:11:34.226Z,1032.12
2018-07-07T11:12:34.229Z,1032.06
2018-07-07T11:13:34.231Z,1032
2018-07-07T11:14:34.235Z,1031.96
2018-07-07T11:15:34.237Z,1031.89
2018-07-07T11:16:34.240Z,1031.86
2018-07-07T11:17:34.244Z,1031.8
2018-07-07T11:18:34.246Z,1031.73
2018-07-07T11:19:34.249Z,1031.58
2018-07-07T11:20:34.251Z,1031.49
2018-07-07T11:21:34.254Z,1031.44
2018-07-07T11:22:34.258Z,1031.39
2018-07-07T11:23:34.261Z,1031.4
2018-07-07T11:24:34.265Z,1031.41
2018-07-07T11:25:34.267Z,1031.36
2018-07-07T11:26:34.270Z,1031.31
2018-07-07T11:27:34.274Z,1031.21
2018-07-07T11:28:34.279Z,1031.16
2018-07-07T11:29:34.280Z,1031.1
2018-07-07T11:30:34.284Z,1031.02
2018-07-07T11:31:34.287Z,1031
2018-07-07T11:32:34.291Z,1030.85
2018-07-07T11:33:34.300Z,1030.87
2018-07-07T11:34:34.299Z,1030.74
2018-07-07T11:35:34.303Z,1030.61
2018-07-07T11:36:34.425Z,1030.54
2018-07-07T11:37:34.311Z,1030.47
2018-07-07T11:38:34.318Z,1030.43
2018-07-07T11:39:34.320Z,1030.37
2018-07-07T11:40:34.324Z,1030.4
2018-07-07T11:41:34.328Z,1030.34
2018-07-07T11:42:34.332Z,1030.31
2018-07-07T11:43:34.339Z,1030.31
2018-07-07T11:44:34.342Z,1030.27
2018-07-07T11:45:34.346Z,1030.22
2018-07-07T11:46:34.350Z,1030.18
2018-07-07T11:47:34.358Z,1030.15
2018-07-07T11:48:34.360Z,1030.11
2018-07-07T11:49:34.363Z,1030.16
2018-07-07T11:50:34.498Z,1030.16
2018-07-07T11:51:34.374Z,1030.13
2018-07-07T11:52:34.379Z,1030.1
2018-07-07T11:53:34.384Z,1030.12
2018-07-07T11:54:34.405Z,1030.1
2018-07-07T11:55:34.394Z,1029.96
2018-07-07T11:56:34.398Z,1030
2018-07-07T11:57:34.404Z,1029.95
2018-07-07T11:58:34.410Z,1029.99
2018-07-07T11:59:34.416Z,1030.06
2018-07-07T12:00:34.418Z,1029.93
2018-07-07T12:01:34.431Z,1030.04
2018-07-07T12:02:34.429Z,1030.08
2018-07-07T12:03:34.435Z,1030.16
2018-07-07T12:04:34.519Z,1030.28
2018-07-07T12:05:34.448Z,1030.3
2018-07-07T12:06:34.455Z,1030.41
2018-07-07T12:07:34.455Z,1030.48
2018-07-07T12:08:34.462Z,1030.59
2018-07-07T12:09:34.465Z,1030.79
2018-07-07T12:10:34.472Z,1030.81
2018-07-07T12:11:34.552Z,1030.83